createdAt,value
2019-01-14T00:00:45.107Z,0.40
2019-01-14T00:03:12.706Z,0.60
2019-01-14T00:05:39.832Z,0.40
2019-01-14T00:08:06.982Z,0.40
2019-01-14T00:10:34.068Z,0.50
2019-01-14T00:13:01.010Z,0.47
2019-01-14T00:15:28.033Z,0.57
2019-01-14T00:17:55.240Z,0.30
2019-01-14T00:20:22.035Z,0.50
2019-01-14T00:22:49.071Z,0.50
2019-01-14T00:25:15.936Z,0.53
2019-01-14T00:27:42.882Z,0.30
2019-01-14T00:30:13.059Z,0.20
2019-01-14T00:32:40.129Z,0.60
2019-01-14T00:35:07.255Z,1.70
2019-01-14T00:37:34.280Z,0.27
2019-01-14T00:40:01.462Z,0.50
2019-01-14T00:42:28.864Z,0.80
2019-01-14T00:44:55.693Z,0.40
2019-01-14T00:47:22.658Z,0.67
2019-01-14T00:49:49.691Z,0.37
2019-01-14T00:52:16.514Z,0.40
2019-01-14T00:54:43.375Z,0.40
2019-01-14T00:57:10.218Z,0.60
2019-01-14T00:59:37.035Z,0.53
2019-01-14T01:02:04.131Z,0.60
2019-01-14T01:04:31.151Z,0.40
2019-01-14T01:07:01.245Z,0.40
2019-01-14T01:09:28.142Z,0.40
2019-01-14T01:12:14.800Z,0.40
2019-01-14T01:14:41.655Z,0.30
2019-01-14T01:17:08.481Z,0.50
2019-01-14T01:19:35.622Z,0.40
2019-01-14T01:22:02.712Z,0.30
2019-01-14T01:24:29.530Z,0.40
2019-01-14T01:26:56.448Z,0.43
2019-01-14T01:29:23.505Z,0.40
2019-01-14T01:31:50.526Z,0.53
2019-01-14T01:34:17.458Z,0.47
2019-01-14T01:36:44.518Z,0.30
2019-01-14T01:39:11.527Z,0.40
2019-01-14T01:41:38.452Z,0.37
2019-01-14T01:44:05.459Z,0.60
2019-01-14T01:46:32.699Z,0.47
2019-01-14T01:48:59.639Z,0.40
2019-01-14T01:51:26.507Z,0.10
2019-01-14T01:53:53.323Z,0.30
2019-01-14T01:56:20.166Z,0.30
2019-01-14T01:58:47.247Z,0.23
2019-01-14T02:01:14.162Z,0.13
2019-01-14T02:03:41.086Z,0.20
2019-01-14T02:06:08.163Z,0.20
2019-01-14T02:08:35.082Z,0.20
2019-01-14T02:11:02.118Z,0.10
2019-01-14T02:13:28.982Z,0.27
2019-01-14T02:15:55.809Z,0.10
2019-01-14T02:18:22.851Z,0.20
2019-01-14T02:20:49.902Z,0.33
2019-01-14T02:23:16.739Z,0.20
2019-01-14T02:25:43.667Z,0.13
2019-01-14T02:28:10.534Z,0.23
2019-01-14T02:30:37.366Z,0.30
2019-01-14T02:33:04.272Z,0.40
2019-01-14T02:35:31.357Z,0.20
2019-01-14T02:37:58.184Z,0.20
2019-01-14T02:40:27.613Z,0.33
2019-01-14T02:42:54.564Z,0.10
2019-01-14T02:45:21.477Z,0.20
2019-01-14T02:47:48.587Z,0.40
2019-01-14T02:50:15.972Z,0.30
2019-01-14T02:52:42.979Z,0.20
2019-01-14T02:55:10.033Z,0.40
2019-01-14T02:57:36.989Z,0.00
2019-01-14T03:00:07.697Z,0.30
2019-01-14T03:02:34.549Z,0.10
2019-01-14T03:05:01.507Z,0.20
2019-01-14T03:07:28.452Z,0.20
2019-01-14T03:09:55.366Z,0.20
2019-01-14T03:12:22.332Z,0.10
2019-01-14T03:14:49.450Z,0.13
2019-01-14T03:17:18.289Z,0.37
2019-01-14T03:19:45.258Z,0.10
2019-01-14T03:22:12.347Z,0.10
2019-01-14T03:24:39.269Z,0.03
2019-01-14T03:27:06.326Z,0.10
2019-01-14T03:29:33.243Z,0.00
2019-01-14T03:32:00.074Z,0.10
2019-01-14T03:34:26.943Z,0.00
2019-01-14T03:36:53.994Z,0.10
2019-01-14T03:39:20.801Z,0.10
2019-01-14T03:41:47.758Z,0.10
2019-01-14T03:44:14.777Z,0.10
2019-01-14T03:46:41.615Z,0.10
2019-01-14T03:49:08.491Z,0.10
2019-01-14T03:51:35.398Z,0.10
2019-01-14T03:54:02.417Z,0.10
2019-01-14T03:56:29.376Z,0.10
2019-01-14T03:58:56.299Z,0.10
2019-01-14T04:01:23.216Z,0.10
2019-01-14T04:03:50.278Z,0.10
2019-01-14T04:06:17.212Z,0.20
2019-01-14T04:08:44.127Z,0.10
2019-01-14T04:11:11.089Z,0.10
2019-01-14T04:13:37.938Z,0.10
2019-01-14T04:16:05.735Z,0.10
2019-01-14T04:18:32.687Z,0.20
2019-01-14T04:20:59.511Z,0.20
2019-01-14T04:23:26.342Z,0.20
2019-01-14T04:25:53.223Z,0.10
2019-01-14T04:28:20.148Z,0.23
2019-01-14T04:30:47.088Z,0.20
2019-01-14T04:33:13.942Z,0.60
2019-01-14T04:35:40.769Z,0.10
2019-01-14T04:38:07.819Z,0.30
2019-01-14T04:40:34.662Z,0.27
2019-01-14T04:43:02.883Z,0.47
2019-01-14T04:45:29.683Z,0.20
2019-01-14T04:47:56.660Z,0.40
2019-01-14T04:50:23.685Z,0.20
2019-01-14T04:52:50.731Z,0.23
2019-01-14T04:55:18.006Z,0.20
2019-01-14T04:57:44.969Z,0.30
2019-01-14T05:00:14.670Z,0.37
2019-01-14T05:02:41.642Z,0.70
2019-01-14T05:05:08.778Z,0.73
2019-01-14T05:07:35.709Z,0.50
2019-01-14T05:10:04.322Z,0.60
2019-01-14T05:12:31.254Z,0.70
2019-01-14T05:14:58.268Z,0.60
2019-01-14T05:17:25.128Z,0.77
2019-01-14T05:19:52.126Z,0.70
2019-01-14T05:22:19.059Z,0.90
2019-01-14T05:24:45.936Z,0.53
2019-01-14T05:27:12.850Z,0.63
2019-01-14T05:29:39.658Z,0.23
2019-01-14T05:32:06.873Z,0.20
2019-01-14T05:34:33.807Z,0.77
2019-01-14T05:37:00.730Z,0.40
2019-01-14T05:39:27.667Z,0.30
2019-01-14T05:41:54.599Z,0.40
2019-01-14T05:44:21.630Z,0.60
2019-01-14T05:46:49.603Z,0.40
2019-01-14T05:49:16.410Z,0.67
2019-01-14T05:51:43.415Z,0.33
2019-01-14T05:54:10.440Z,0.30
2019-01-14T05:56:37.481Z,0.40
2019-01-14T05:59:04.497Z,0.40
2019-01-14T06:01:31.559Z,0.50
2019-01-14T06:03:58.502Z,0.40
2019-01-14T06:06:25.393Z,0.70
2019-01-14T06:08:52.252Z,0.43
2019-01-14T06:11:19.063Z,0.70
2019-01-14T06:13:46.370Z,0.60
2019-01-14T06:16:13.321Z,0.50
2019-01-14T06:18:40.235Z,0.50
2019-01-14T06:21:07.070Z,0.70
2019-01-14T06:23:33.919Z,0.67
2019-01-14T06:26:00.721Z,0.50
2019-01-14T06:28:27.514Z,0.80
2019-01-14T06:30:54.356Z,0.30
2019-01-14T06:33:21.265Z,0.70
2019-01-14T06:35:48.166Z,0.60
2019-01-14T06:38:17.706Z,1.03
2019-01-14T06:40:44.725Z,0.60
2019-01-14T06:43:11.630Z,0.70
2019-01-14T06:45:38.698Z,0.57
2019-01-14T06:48:05.768Z,0.50
2019-01-14T06:50:32.586Z,0.47
2019-01-14T06:52:59.434Z,0.97
2019-01-14T06:55:26.361Z,0.87
2019-01-14T06:57:53.273Z,0.63
2019-01-14T07:00:22.686Z,0.23
2019-01-14T07:02:51.378Z,0.40
2019-01-14T07:05:18.769Z,0.50
2019-01-14T07:07:45.846Z,0.50
2019-01-14T07:10:16.963Z,0.90
2019-01-14T07:12:43.981Z,0.60
2019-01-14T07:15:11.137Z,0.60
2019-01-14T07:17:38.235Z,0.80
2019-01-14T07:20:05.806Z,0.70
2019-01-14T07:22:32.845Z,0.57
2019-01-14T07:24:59.781Z,0.40
2019-01-14T07:27:26.711Z,0.47
2019-01-14T07:29:53.664Z,0.70
2019-01-14T07:32:20.568Z,0.57
2019-01-14T07:34:47.500Z,0.50
2019-01-14T07:37:14.350Z,0.87
2019-01-14T07:39:41.253Z,0.83
2019-01-14T07:42:08.250Z,0.70
2019-01-14T07:44:35.106Z,0.33
2019-01-14T07:47:02.119Z,0.30
2019-01-14T07:49:28.908Z,0.57
2019-01-14T07:51:55.968Z,1.43
2019-01-14T07:54:22.772Z,0.30
2019-01-14T07:56:50.074Z,1.07
2019-01-14T07:59:16.924Z,0.40
2019-01-14T08:01:43.918Z,0.50
2019-01-14T08:04:10.926Z,0.40
2019-01-14T08:06:37.785Z,0.47
2019-01-14T08:09:06.778Z,0.57
2019-01-14T08:11:33.586Z,0.50
2019-01-14T08:14:00.440Z,0.97
2019-01-14T08:16:27.337Z,0.77
2019-01-14T08:18:54.146Z,0.27
2019-01-14T08:21:20.996Z,0.60
2019-01-14T08:23:47.810Z,0.70
2019-01-14T08:26:14.806Z,1.07
2019-01-14T08:28:41.748Z,0.50
2019-01-14T08:31:08.577Z,1.00
2019-01-14T08:33:35.588Z,1.00
2019-01-14T08:36:02.517Z,0.77
2019-01-14T08:38:29.469Z,0.53
2019-01-14T08:40:56.770Z,0.37
2019-01-14T08:43:25.527Z,0.57
2019-01-14T08:45:52.833Z,0.43
2019-01-14T08:48:19.751Z,0.43
2019-01-14T08:50:46.719Z,1.17
2019-01-14T08:53:13.733Z,0.50
2019-01-14T08:55:40.553Z,0.40
2019-01-14T08:58:07.527Z,0.50
2019-01-14T09:00:34.546Z,0.33
2019-01-14T09:03:01.446Z,0.80
2019-01-14T09:05:28.389Z,0.53
2019-01-14T09:07:55.303Z,0.80
2019-01-14T09:10:25.659Z,0.50
2019-01-14T09:12:52.751Z,0.97
2019-01-14T09:15:19.752Z,0.60
2019-01-14T09:17:46.950Z,0.70
2019-01-14T09:20:16.083Z,1.00
2019-01-14T09:22:43.194Z,0.67
2019-01-14T09:25:10.205Z,1.93
2019-01-14T09:27:37.143Z,0.77
2019-01-14T09:30:08.802Z,0.63
2019-01-14T09:32:35.617Z,1.17
2019-01-14T09:35:03.078Z,0.90
2019-01-14T09:37:29.890Z,0.60
2019-01-14T09:39:56.687Z,0.53
2019-01-14T09:42:27.817Z,1.13
2019-01-14T09:44:52.394Z,1.03
2019-01-14T09:47:19.181Z,0.80
2019-01-14T09:49:46.123Z,0.93
2019-01-14T09:52:12.945Z,0.97
2019-01-14T09:54:39.746Z,0.83
2019-01-14T09:57:06.989Z,0.70
2019-01-14T09:59:33.797Z,0.80
2019-01-14T10:02:00.709Z,0.87
2019-01-14T10:04:27.679Z,0.63
2019-01-14T10:06:54.771Z,0.80
2019-01-14T10:09:21.761Z,0.50
2019-01-14T10:11:48.600Z,0.67
2019-01-14T10:14:15.409Z,0.57
2019-01-14T10:16:43.130Z,0.50
2019-01-14T10:19:10.180Z,1.10
2019-01-14T10:21:37.082Z,1.07
2019-01-14T10:24:04.090Z,1.70
2019-01-14T10:26:31.074Z,0.60
2019-01-14T10:28:58.015Z,0.73
2019-01-14T10:31:24.981Z,0.40
2019-01-14T10:33:51.840Z,0.70
2019-01-14T10:36:18.842Z,1.00
2019-01-14T10:38:50.308Z,1.13
2019-01-14T10:41:14.430Z,0.80
2019-01-14T10:43:41.334Z,0.83
2019-01-14T10:46:08.151Z,0.87
2019-01-14T10:48:34.985Z,2.90
2019-01-14T10:51:01.887Z,3.43
2019-01-14T10:53:28.821Z,1.33
2019-01-14T10:55:55.873Z,1.10
2019-01-14T10:58:22.791Z,0.70
2019-01-14T11:00:49.702Z,0.83
2019-01-14T11:03:16.651Z,0.57
2019-01-14T11:05:43.775Z,1.00
2019-01-14T11:08:10.669Z,0.70
2019-01-14T11:10:37.626Z,1.13
2019-01-14T11:13:04.721Z,0.70
2019-01-14T11:15:31.514Z,0.70
2019-01-14T11:17:58.561Z,1.53
2019-01-14T11:20:28.112Z,1.20
2019-01-14T11:22:55.054Z,0.90
2019-01-14T11:25:22.120Z,1.07
2019-01-14T11:27:49.233Z,0.90
2019-01-14T11:30:22.574Z,1.40
2019-01-14T11:32:49.622Z,0.80
2019-01-14T11:35:16.626Z,0.70
2019-01-14T11:37:43.659Z,0.67
2019-01-14T11:40:14.103Z,0.60
2019-01-14T11:42:40.908Z,0.90
2019-01-14T11:45:09.820Z,1.00
2019-01-14T11:47:36.750Z,0.80
2019-01-14T11:50:05.963Z,1.27
2019-01-14T11:52:32.884Z,0.90
2019-01-14T11:54:59.989Z,1.20
2019-01-14T11:57:27.017Z,0.70
2019-01-14T11:59:53.927Z,1.00
2019-01-14T12:02:20.875Z,0.70
2019-01-14T12:04:47.691Z,0.87
2019-01-14T12:07:14.729Z,0.97
2019-01-14T12:09:41.796Z,1.00
2019-01-14T12:12:08.694Z,1.33
2019-01-14T12:14:35.628Z,1.33
2019-01-14T12:17:02.672Z,1.20
2019-01-14T12:19:29.490Z,0.60
2019-01-14T12:21:56.315Z,1.60
2019-01-14T12:24:23.360Z,1.03
2019-01-14T12:26:50.278Z,1.10
2019-01-14T12:29:17.202Z,0.73
2019-01-14T12:31:44.346Z,0.80
2019-01-14T12:34:11.382Z,0.40
2019-01-14T12:36:38.286Z,1.43
2019-01-14T12:39:07.404Z,0.60
2019-01-14T12:41:34.209Z,1.00
2019-01-14T12:44:01.119Z,1.93
2019-01-14T12:46:28.005Z,1.10
2019-01-14T12:48:55.462Z,0.90
2019-01-14T12:51:22.466Z,0.77
2019-01-14T12:53:49.450Z,0.77
2019-01-14T12:56:16.380Z,0.60
2019-01-14T12:58:44.315Z,0.90
2019-01-14T13:01:11.164Z,0.70
2019-01-14T13:03:38.075Z,1.20
2019-01-14T13:06:05.589Z,1.30
2019-01-14T13:08:32.430Z,1.17
2019-01-14T13:10:59.333Z,0.63
2019-01-14T13:13:26.238Z,1.03
2019-01-14T13:15:53.091Z,1.17
2019-01-14T13:18:19.929Z,1.10
2019-01-14T13:20:46.802Z,0.77
2019-01-14T13:23:13.745Z,1.30
2019-01-14T13:25:40.536Z,0.80
2019-01-14T13:28:07.546Z,0.83
2019-01-14T13:30:34.703Z,0.77
2019-01-14T13:33:01.747Z,1.33
2019-01-14T13:35:28.855Z,1.30
2019-01-14T13:37:56.067Z,0.90
2019-01-14T13:40:23.161Z,0.97
2019-01-14T13:42:49.978Z,1.00
2019-01-14T13:45:18.146Z,1.10
2019-01-14T13:47:45.253Z,1.07
2019-01-14T13:50:14.362Z,1.17
2019-01-14T13:52:41.397Z,0.80
2019-01-14T13:55:08.719Z,0.70
2019-01-14T13:57:35.651Z,1.00
2019-01-14T14:00:05.118Z,1.00
2019-01-14T14:02:31.922Z,1.17
2019-01-14T14:04:58.731Z,1.10
2019-01-14T14:07:25.593Z,1.27
2019-01-14T14:09:52.506Z,1.80
2019-01-14T14:12:19.327Z,1.03
2019-01-14T14:14:46.169Z,0.87
2019-01-14T14:17:13.282Z,1.13
2019-01-14T14:19:40.177Z,1.37
2019-01-14T14:22:11.695Z,2.20
2019-01-14T14:24:36.158Z,0.93
2019-01-14T14:27:03.290Z,1.70
2019-01-14T14:29:30.226Z,0.90
2019-01-14T14:31:57.138Z,1.27
2019-01-14T14:34:24.028Z,1.07
2019-01-14T14:36:50.977Z,1.13
2019-01-14T14:39:17.896Z,0.87
2019-01-14T14:41:44.818Z,1.27
2019-01-14T14:44:11.770Z,1.50
2019-01-14T14:46:38.579Z,1.20
2019-01-14T14:49:05.592Z,1.10
2019-01-14T14:51:32.535Z,1.60
2019-01-14T14:53:59.454Z,1.97
2019-01-14T14:56:26.383Z,1.23
2019-01-14T14:58:53.230Z,1.43
2019-01-14T15:01:20.050Z,0.57
2019-01-14T15:03:46.877Z,0.70
2019-01-14T15:06:13.832Z,1.10
2019-01-14T15:08:40.709Z,1.00
2019-01-14T15:11:07.535Z,1.73
2019-01-14T15:13:34.492Z,1.30
2019-01-14T15:16:01.291Z,1.10
2019-01-14T15:18:28.531Z,1.70
2019-01-14T15:20:55.395Z,1.77
2019-01-14T15:23:22.250Z,1.10
2019-01-14T15:25:49.067Z,2.43
2019-01-14T15:28:15.928Z,1.37
2019-01-14T15:30:42.995Z,1.20
2019-01-14T15:33:09.814Z,0.83
2019-01-14T15:35:36.795Z,0.73
2019-01-14T15:38:03.934Z,0.70
2019-01-14T15:40:30.943Z,0.80
2019-01-14T15:42:57.900Z,0.93
2019-01-14T15:45:25.157Z,0.63
2019-01-14T15:47:52.105Z,1.13
2019-01-14T15:50:19.039Z,1.00
2019-01-14T15:52:46.064Z,0.87
2019-01-14T15:55:15.645Z,1.03
2019-01-14T15:57:42.610Z,1.30
2019-01-14T16:00:11.712Z,1.30
2019-01-14T16:02:38.630Z,1.47
2019-01-14T16:05:05.797Z,1.00
2019-01-14T16:07:32.846Z,1.20
2019-01-14T16:09:59.663Z,1.40
2019-01-14T16:12:27.019Z,1.37
2019-01-14T16:14:54.196Z,0.87
2019-01-14T16:17:21.214Z,1.30
2019-01-14T16:19:48.230Z,1.10
2019-01-14T16:22:15.029Z,1.17
2019-01-14T16:24:41.872Z,1.13
2019-01-14T16:27:08.844Z,1.30
2019-01-14T16:29:35.681Z,0.93
2019-01-14T16:32:02.903Z,1.30
2019-01-14T16:34:29.822Z,1.60
2019-01-14T16:36:57.659Z,1.30
2019-01-14T16:39:24.592Z,1.30
2019-01-14T16:41:51.487Z,1.07
2019-01-14T16:44:18.421Z,1.13
2019-01-14T16:46:45.348Z,1.43
2019-01-14T16:49:12.330Z,1.53
2019-01-14T16:51:39.262Z,2.20
2019-01-14T16:54:06.278Z,1.50
2019-01-14T16:56:33.163Z,1.43
2019-01-14T16:59:00.012Z,1.93
2019-01-14T17:01:26.942Z,1.53
2019-01-14T17:03:54.028Z,1.53
2019-01-14T17:06:21.082Z,1.60
2019-01-14T17:08:48.119Z,0.83
2019-01-14T17:11:15.190Z,1.90
2019-01-14T17:13:42.217Z,1.50
2019-01-14T17:16:09.034Z,1.33
2019-01-14T17:18:36.519Z,0.97
2019-01-14T17:21:03.537Z,1.60
2019-01-14T17:23:30.470Z,1.20
2019-01-14T17:25:57.545Z,1.97
2019-01-14T17:28:24.374Z,1.70
2019-01-14T17:30:51.515Z,1.70
2019-01-14T17:33:19.832Z,1.77
2019-01-14T17:35:46.905Z,3.03
2019-01-14T17:38:13.922Z,1.90
2019-01-14T17:40:40.976Z,1.83
2019-01-14T17:43:07.802Z,1.43
2019-01-14T17:45:40.511Z,1.70
2019-01-14T17:48:07.573Z,1.83
2019-01-14T17:50:34.491Z,1.73
2019-01-14T17:53:01.509Z,1.57
2019-01-14T17:55:28.442Z,1.70
2019-01-14T17:57:55.369Z,1.60
2019-01-14T18:00:26.426Z,2.03
2019-01-14T18:02:53.382Z,1.23
2019-01-14T18:05:20.284Z,1.37
2019-01-14T18:07:47.089Z,0.90
2019-01-14T18:10:15.083Z,1.33
2019-01-14T18:12:42.110Z,1.40
2019-01-14T18:15:09.199Z,1.17
2019-01-14T18:17:36.057Z,1.47
2019-01-14T18:20:04.806Z,1.53
2019-01-14T18:22:31.737Z,2.03
2019-01-14T18:24:58.579Z,2.43
2019-01-14T18:27:25.625Z,1.67
2019-01-14T18:29:52.524Z,1.47
2019-01-14T18:32:19.490Z,1.50
2019-01-14T18:34:46.297Z,1.43
2019-01-14T18:37:13.206Z,1.53
2019-01-14T18:39:40.046Z,1.60
2019-01-14T18:42:08.123Z,1.73
2019-01-14T18:44:35.200Z,1.90
2019-01-14T18:47:02.249Z,1.90
2019-01-14T18:49:29.184Z,1.80
2019-01-14T18:51:56.098Z,1.40
2019-01-14T18:54:22.942Z,1.53
2019-01-14T18:56:49.942Z,1.57
2019-01-14T18:59:16.767Z,1.80
2019-01-14T19:01:43.826Z,1.57
2019-01-14T19:04:10.642Z,2.07
2019-01-14T19:06:37.461Z,1.77
2019-01-14T19:09:07.538Z,2.03
2019-01-14T19:11:34.626Z,1.50
2019-01-14T19:14:01.681Z,1.50
2019-01-14T19:16:28.705Z,1.57
2019-01-14T19:18:55.537Z,1.13
2019-01-14T19:21:22.314Z,2.00
2019-01-14T19:23:51.330Z,2.40
2019-01-14T19:26:18.244Z,1.97
2019-01-14T19:28:45.246Z,0.90
2019-01-14T19:31:12.128Z,2.50
2019-01-14T19:33:39.066Z,1.63
2019-01-14T19:36:06.105Z,1.30
2019-01-14T19:38:33.134Z,1.57
2019-01-14T19:41:01.950Z,1.80
2019-01-14T19:43:28.930Z,1.37
2019-01-14T19:45:55.782Z,1.73
2019-01-14T19:48:22.705Z,1.50
2019-01-14T19:50:49.626Z,1.57
2019-01-14T19:53:16.462Z,1.50
2019-01-14T19:55:43.272Z,1.33
2019-01-14T19:58:10.320Z,1.60
2019-01-14T20:00:37.648Z,1.60
2019-01-14T20:03:04.641Z,1.43
2019-01-14T20:05:31.669Z,1.30
2019-01-14T20:07:59.104Z,1.83
2019-01-14T20:10:26.102Z,1.77
2019-01-14T20:12:54.102Z,1.20
2019-01-14T20:15:21.819Z,1.60
2019-01-14T20:17:48.762Z,1.30
2019-01-14T20:20:16.290Z,0.90
2019-01-14T20:22:43.355Z,1.73
2019-01-14T20:25:10.519Z,1.33
2019-01-14T20:27:37.867Z,1.03
2019-01-14T20:30:13.726Z,0.60
2019-01-14T20:32:40.651Z,1.67
2019-01-14T20:35:07.662Z,0.90
2019-01-14T20:37:34.523Z,1.67
2019-01-14T20:40:01.562Z,1.27
2019-01-14T20:42:28.503Z,1.67
2019-01-14T20:44:55.504Z,0.90
2019-01-14T20:47:22.417Z,1.30
2019-01-14T20:49:49.235Z,0.70
2019-01-14T20:52:16.322Z,1.87
2019-01-14T20:54:43.145Z,1.77
2019-01-14T20:57:10.181Z,1.90
2019-01-14T20:59:38.619Z,1.93
2019-01-14T21:02:05.875Z,1.70
2019-01-14T21:04:32.714Z,1.23
2019-01-14T21:06:59.693Z,1.40
2019-01-14T21:09:26.491Z,1.13
2019-01-14T21:11:53.303Z,1.10
2019-01-14T21:14:20.151Z,1.43
2019-01-14T21:16:47.038Z,1.20
2019-01-14T21:19:13.848Z,1.10
2019-01-14T21:21:40.928Z,1.40
2019-01-14T21:24:07.730Z,1.53
2019-01-14T21:26:34.662Z,1.73
2019-01-14T21:29:01.633Z,1.17
2019-01-14T21:31:28.634Z,1.63
2019-01-14T21:33:55.578Z,1.00
2019-01-14T21:36:22.547Z,1.80
2019-01-14T21:38:49.468Z,1.00
2019-01-14T21:41:16.374Z,2.00
2019-01-14T21:43:43.222Z,1.17
2019-01-14T21:46:10.154Z,1.60
2019-01-14T21:48:37.010Z,1.17
2019-01-14T21:51:04.012Z,1.10
2019-01-14T21:53:30.827Z,2.33
2019-01-14T21:55:57.654Z,1.63
2019-01-14T21:58:24.591Z,1.00
2019-01-14T22:00:51.407Z,1.50
2019-01-14T22:03:18.330Z,1.50
2019-01-14T22:05:45.269Z,1.60
2019-01-14T22:08:12.201Z,1.10
2019-01-14T22:10:39.119Z,1.03
2019-01-14T22:13:06.069Z,1.43
2019-01-14T22:15:32.994Z,1.50
2019-01-14T22:17:59.831Z,1.70
2019-01-14T22:20:28.874Z,1.73
2019-01-14T22:22:55.858Z,1.53
2019-01-14T22:25:22.781Z,0.90
2019-01-14T22:27:49.854Z,1.37
2019-01-14T22:30:19.416Z,1.27
2019-01-14T22:32:46.479Z,2.67
2019-01-14T22:35:13.572Z,2.87
2019-01-14T22:37:40.510Z,1.43
2019-01-14T22:40:08.054Z,1.53
2019-01-14T22:42:35.022Z,1.80
2019-01-14T22:45:02.073Z,1.30
2019-01-14T22:47:29.194Z,1.33
2019-01-14T22:49:56.190Z,1.13
2019-01-14T22:52:23.183Z,1.40
2019-01-14T22:54:50.076Z,1.33
2019-01-14T22:57:16.966Z,1.10
2019-01-14T22:59:43.915Z,2.07
2019-01-14T23:02:10.926Z,1.00
2019-01-14T23:04:38.026Z,1.40
2019-01-14T23:07:05.110Z,1.37
2019-01-14T23:09:32.182Z,1.50
2019-01-14T23:11:59.170Z,1.30
2019-01-14T23:14:26.103Z,1.60
2019-01-14T23:16:53.055Z,1.03
2019-01-14T23:19:20.027Z,1.23
2019-01-14T23:21:46.953Z,1.60
2019-01-14T23:24:13.885Z,1.97
2019-01-14T23:26:40.830Z,1.20
2019-01-14T23:29:07.754Z,1.37
2019-01-14T23:31:34.685Z,1.60
2019-01-14T23:34:03.918Z,2.03
2019-01-14T23:36:30.763Z,1.20
2019-01-14T23:38:57.763Z,0.87
2019-01-14T23:41:24.704Z,1.83
2019-01-14T23:43:51.630Z,1.50
2019-01-14T23:46:18.442Z,0.80
2019-01-14T23:48:45.425Z,1.20
2019-01-14T23:51:12.456Z,1.30
2019-01-14T23:53:39.389Z,1.07
2019-01-14T23:56:06.215Z,1.13
2019-01-14T23:58:33.027Z,1.80
